ADDS METAR Data INFO
IDs: Format: Raw Decoded Include TAF

Data at: 2052 UTC 26 May 2017

KALI 261953Z AUTO 10014G20KT 10SM BKN046 34/25 A2979 RMK AO2 SLP086 T03440250
KALI 261853Z AUTO 15010G20KT 10SM SCT038 BKN047 35/23 A2981 RMK AO2 SLP092 T03500233
KALI 261753Z AUTO 16015G20KT 10SM BKN033 BKN040 33/23 A2983 RMK AO2 SLP098 T03280233 10328 20267 58004
KALI 261733Z AUTO 15012KT 10SM SCT027 BKN035 33/23 A2983 RMK AO2 T03280233
KALI 261723Z AUTO 15014KT 10SM BKN027 BKN033 33/23 A2984 RMK AO2 T03280233
KALI 261653Z AUTO 14011KT 10SM SCT022 BKN030 OVC037 31/23 A2984 RMK AO2 SLP101 T03110233
KALI 261553Z AUTO 13008KT 10SM OVC020 28/23 A2984 RMK AO2 SLP103 T02780233
KALI 261453Z AUTO 13007KT 10SM OVC021 27/23 A2984 RMK AO2 SLP102 T02720233 51017
KALI 261353Z AUTO 15007KT 10SM OVC019 27/23 A2983 RMK AO2 SLP099 T02670228
KALI 261253Z AUTO 15008KT 10SM OVC022 27/23 A2980 RMK AO2 SLP090 T02670228
KALI 261153Z AUTO 18010KT 10SM OVC020 27/23 A2979 RMK AO2 SLP085 T02670228 10267 20256 53013
KALI 261053Z AUTO 17012G21KT 10SM OVC019 26/23 A2977 RMK AO2 SLP079 T02610228
KALI 260953Z AUTO 17012G19KT 10SM OVC018 26/23 A2976 RMK AO2 SLP074 T02610228
KALI 260853Z AUTO 17014KT 10SM OVC017 26/23 A2975 RMK AO2 SLP072 T02560228 56005
KALI 260753Z AUTO 16015G26KT 10SM OVC016 26/23 A2975 RMK AO2 PK WND 16026/0749 SLP073 T02560228
KALI 260728Z AUTO 17014G21KT 10SM OVC015 26/23 A2975 RMK AO2 T02560228
KALI 260653Z AUTO 17012G21KT 10SM OVC013 26/23 A2976 RMK AO2 SLP075 T02560228
KALI 260629Z AUTO 16014KT 10SM OVC014 26/23 A2975 RMK AO2 T02560228
KALI 260553Z AUTO 17012KT 10SM OVC018 26/23 A2977 RMK AO2 SLP077 T02560228 10300 20250 403500139 53002
KALI 260545Z AUTO 16011G19KT 10SM BKN018 26/23 A2977 RMK AO2 T02560228
KALI 260453Z AUTO 15016G23KT 10SM CLR 26/23 A2975 RMK AO2 SLP071 T02560228
KALI 260438Z AUTO 15015KT 10SM SCT025 26/23 A2976 RMK AO2 T02610228
KALI 260353Z AUTO 15012KT 10SM BKN029 26/23 A2976 RMK AO2 SLP076 T02560228
KALI 260349Z AUTO 14010KT 10SM BKN029 26/23 A2976 RMK AO2
KALI 260308Z AUTO 14011KT 10SM BKN031 26/23 A2975 RMK AO2 T02560233
KALI 260253Z AUTO 14012KT 10SM FEW015 BKN029 26/23 A2975 RMK AO2 SLP071 T02560233 53023
KALI 260234Z AUTO 14014G20KT 10SM FEW016 BKN027 26/23 A2974 RMK AO2 T02560233
KALI 260153Z AUTO 14017G22KT 10SM CLR 26/23 A2972 RMK AO2 SLP061 T02610228
KALI 260053Z AUTO 14013G22KT 10SM CLR 28/23 A2970 RMK AO2 SLP054 T02780228
KALI 252353Z AUTO 13019G26KT 10SM CLR 30/23 A2968 RMK AO2 PK WND 13026/2336 SLP048 T03000228 10350 20300 56009
KALI 252253Z AUTO 13016G22KT 10SM CLR 32/22 A2968 RMK AO2 SLP048 T03220222
KALI 252153Z AUTO 13016G23KT 10SM CLR 34/22 A2969 RMK AO2 SLP051 T03390217
KALI 252053Z AUTO 13019G24KT 10SM CLR 34/21 A2971 RMK AO2 SLP057 T03390211 58020
KALI 251953Z AUTO 13015G23KT 10SM CLR 34/21 A2973 RMK AO2 SLP064 T03440206
KALI 251853Z AUTO 13015G22KT 10SM CLR 34/19 A2975 RMK AO2 SLP071 T03440189
KALI 251753Z AUTO 15015G23KT 10SM CLR 34/18 A2977 RMK AO2 SLP077 T03390178 10339 20139 58015
KALI 251653Z AUTO 18012G21KT 10SM CLR 32/16 A2979 RMK AO2 SLP084 T03220161
KALI 251553Z AUTO 17013KT 10SM CLR 30/16 A2980 RMK AO2 SLP088 T03000156
KALI 251453Z AUTO 17014KT 10SM CLR 27/17 A2981 RMK AO2 SLP093 T02720172 53005
KALI 251353Z AUTO 18011KT 10SM CLR 24/17 A2980 RMK AO2 SLP089 T02390172
KALI 251253Z AUTO 17006KT 10SM CLR 18/16 A2980 RMK AO2 SLP088 T01830156
KALI 251153Z AUTO 00000KT 10SM CLR 14/13 A2980 RMK AO2 SLP087 T01390128 10172 20139 53009
KALI 251053Z AUTO 18005KT 10SM CLR 15/14 A2979 RMK AO2 SLP083 T01500139
KALI 250953Z AUTO 18006KT 10SM CLR 15/13 A2978 RMK AO2 SLP081 T01500133
KALI 250853Z AUTO 19004KT 10SM CLR 15/13 A2977 RMK AO2 SLP078 T01500128 58004


Page loaded:  20:52 UTC  |   01:52 PM Pacific  |   02:52 PM Mountain  |   03:52 PM Central  |   04:52 PM Eastern

 

ADVISORIES

FORECASTS

FORECASTS

OBSERVATIONS

USER TOOLS

ABOUT US